createdAt,value
2022-12-09T00:01:38.312Z,35.60
2022-12-09T00:06:40.578Z,65.03
2022-12-09T00:11:43.669Z,49.15
2022-12-09T00:16:46.115Z,61.15
2022-12-09T00:21:48.276Z,66.25
2022-12-09T00:26:50.474Z,62.00
2022-12-09T00:31:52.769Z,61.63
2022-12-09T00:36:55.148Z,71.88
2022-12-09T00:41:57.518Z,63.72
2022-12-09T00:46:59.610Z,76.90
2022-12-09T00:52:01.745Z,59.05
2022-12-09T00:57:04.492Z,69.40
2022-12-09T01:02:06.895Z,72.35
2022-12-09T01:07:10.341Z,68.65
2022-12-09T01:12:12.439Z,69.28
2022-12-09T01:17:15.671Z,61.70
2022-12-09T01:22:17.970Z,67.40
2022-12-09T01:27:20.305Z,53.10
2022-12-09T01:32:22.882Z,44.38
2022-12-09T01:37:25.446Z,45.80
2022-12-09T01:42:27.681Z,45.17
2022-12-09T01:47:29.782Z,45.85
2022-12-09T01:52:32.000Z,50.60
2022-12-09T01:57:34.494Z,48.30
2022-12-09T02:02:38.299Z,48.25
2022-12-09T02:07:41.461Z,48.88
2022-12-09T02:13:03.491Z,49.55
2022-12-09T02:18:24.789Z,48.50
2022-12-09T02:23:33.959Z,46.22
2022-12-09T02:28:55.115Z,49.72
2022-12-09T02:34:13.620Z,53.55
2022-12-09T02:39:25.658Z,53.17
2022-12-09T02:44:28.991Z,56.78
2022-12-09T02:49:34.482Z,55.85
2022-12-09T02:54:38.669Z,55.17
2022-12-09T02:59:41.462Z,51.85
2022-12-09T03:04:49.093Z,47.72
2022-12-09T03:09:59.046Z,56.95
2022-12-09T03:15:04.599Z,48.97
2022-12-09T03:20:12.889Z,55.05
2022-12-09T03:25:23.821Z,49.63
2022-12-09T03:35:42.398Z,57.15
2022-12-09T03:40:46.431Z,49.08
2022-12-09T03:45:48.956Z,51.83
2022-12-09T03:50:56.587Z,59.22
2022-12-09T03:56:17.865Z,52.97
2022-12-09T04:01:22.957Z,52.92
2022-12-09T04:06:25.894Z,57.20
2022-12-09T04:11:27.870Z,53.78
2022-12-09T04:16:30.262Z,53.25
2022-12-09T04:21:32.418Z,52.45
2022-12-09T04:26:34.965Z,54.10
2022-12-09T04:31:37.367Z,57.53
2022-12-09T04:36:39.601Z,49.35
2022-12-09T04:41:41.982Z,42.05
2022-12-09T04:46:44.308Z,50.22
2022-12-09T04:51:46.516Z,44.47
2022-12-09T04:56:49.538Z,42.47
2022-12-09T05:01:52.168Z,44.63
2022-12-09T05:06:54.367Z,44.50
2022-12-09T05:11:58.060Z,45.22
2022-12-09T05:17:00.292Z,44.25
2022-12-09T05:22:02.901Z,43.65
2022-12-09T05:27:05.393Z,47.55
2022-12-09T05:32:07.825Z,50.00
2022-12-09T05:37:14.161Z,48.15
2022-12-09T05:42:16.200Z,45.95
2022-12-09T05:47:18.455Z,48.25
2022-12-09T05:52:20.588Z,48.30
2022-12-09T05:57:23.002Z,43.45
2022-12-09T06:02:25.674Z,47.17
2022-12-09T06:07:28.631Z,51.60
2022-12-09T06:12:31.084Z,46.33
2022-12-09T06:17:33.567Z,46.75
2022-12-09T06:22:35.607Z,46.60
2022-12-09T06:27:37.879Z,46.83
2022-12-09T06:32:40.198Z,50.58
2022-12-09T06:37:42.978Z,47.63
2022-12-09T06:42:45.208Z,46.25
2022-12-09T06:47:48.317Z,48.35
2022-12-09T06:52:50.796Z,48.83
2022-12-09T06:57:52.981Z,49.17
2022-12-09T07:02:55.648Z,44.53
2022-12-09T07:07:58.286Z,47.67
2022-12-09T07:13:00.637Z,49.28
2022-12-09T07:18:02.927Z,49.92
2022-12-09T07:23:05.906Z,49.92
2022-12-09T07:28:08.002Z,71.30
2022-12-09T07:33:10.749Z,56.70
2022-12-09T07:38:12.847Z,52.45
2022-12-09T07:43:15.600Z,52.08
2022-12-09T07:48:17.833Z,56.08
2022-12-09T07:53:20.495Z,57.95
2022-12-09T07:58:22.754Z,57.22
2022-12-09T08:03:24.884Z,56.38
2022-12-09T08:08:28.438Z,55.85
2022-12-09T08:13:31.082Z,61.50
2022-12-09T08:18:34.385Z,57.90
2022-12-09T08:23:37.326Z,60.28
2022-12-09T08:28:40.332Z,58.70
2022-12-09T08:33:43.341Z,58.67
2022-12-09T08:38:46.326Z,58.90
2022-12-09T08:43:49.169Z,56.70
2022-12-09T08:48:52.021Z,59.00
2022-12-09T08:53:54.240Z,59.15
2022-12-09T08:58:56.602Z,78.43
2022-12-09T09:04:06.371Z,72.53
2022-12-09T09:09:11.764Z,85.65
2022-12-09T09:14:14.972Z,78.80
2022-12-09T09:19:22.964Z,75.82
2022-12-09T09:24:41.173Z,67.50
2022-12-09T09:29:43.827Z,65.95
2022-12-09T09:34:48.527Z,69.40
2022-12-09T09:39:51.371Z,82.78
2022-12-09T09:44:54.992Z,79.70
2022-12-09T09:50:19.707Z,105.07
2022-12-09T09:55:40.265Z,97.38
2022-12-09T10:01:07.421Z,85.20
2022-12-09T10:06:29.012Z,75.47
2022-12-09T10:11:59.783Z,86.25
2022-12-09T10:17:27.118Z,79.78
2022-12-09T10:22:38.242Z,84.47
2022-12-09T10:27:45.927Z,82.13
2022-12-09T10:32:49.164Z,77.38
2022-12-09T10:37:53.663Z,74.88
2022-12-09T10:43:16.764Z,79.75
2022-12-09T10:48:33.394Z,68.68
2022-12-09T10:53:36.883Z,77.45
2022-12-09T10:58:39.313Z,72.80
2022-12-09T11:03:49.090Z,68.03
2022-12-09T11:08:55.564Z,65.88
2022-12-09T11:13:58.368Z,71.90
2022-12-09T11:19:00.940Z,65.38
2022-12-09T11:24:04.910Z,66.25
2022-12-09T11:29:19.370Z,61.97
2022-12-09T11:34:26.273Z,64.95
2022-12-09T11:39:32.783Z,56.78
2022-12-09T11:44:36.223Z,51.35
2022-12-09T11:49:49.533Z,49.17
2022-12-09T11:55:12.442Z,44.58
2022-12-09T12:00:24.312Z,48.00
2022-12-09T12:05:34.818Z,44.38
2022-12-09T12:10:42.313Z,48.80
2022-12-09T12:15:51.148Z,47.65
2022-12-09T12:21:05.207Z,44.60
2022-12-09T12:26:19.581Z,45.17
2022-12-09T12:31:40.584Z,51.53
2022-12-09T12:37:03.254Z,41.63
2022-12-09T12:42:34.509Z,46.67
2022-12-09T12:47:48.933Z,47.63
2022-12-09T12:53:18.558Z,42.45
2022-12-09T12:58:52.723Z,42.17
2022-12-09T13:04:21.722Z,39.83
2022-12-09T13:09:35.755Z,37.45
2022-12-09T13:14:55.868Z,42.33
2022-12-09T13:20:03.683Z,44.05
2022-12-09T13:25:32.237Z,43.40
2022-12-09T13:31:08.076Z,40.38
2022-12-09T13:36:21.042Z,37.83
2022-12-09T13:41:26.162Z,45.78
2022-12-09T13:46:29.724Z,43.33
2022-12-09T13:51:44.895Z,39.03
2022-12-09T13:57:12.366Z,41.28
2022-12-09T14:02:24.197Z,45.15
2022-12-09T14:07:34.294Z,48.30
2022-12-09T14:12:44.075Z,42.63
2022-12-09T14:17:46.517Z,44.03
2022-12-09T14:23:12.253Z,40.22
2022-12-09T14:28:15.454Z,43.38
2022-12-09T14:33:22.047Z,57.78
2022-12-09T14:38:54.326Z,55.40
2022-12-09T14:44:33.900Z,54.85
2022-12-09T14:49:42.755Z,79.60
2022-12-09T14:54:53.495Z,37.38
2022-12-09T14:59:56.899Z,43.88
2022-12-09T15:05:01.708Z,45.33
2022-12-09T15:10:17.058Z,67.65
2022-12-09T15:15:21.067Z,73.43
2022-12-09T15:20:32.696Z,52.45
2022-12-09T15:25:45.297Z,47.92
2022-12-09T15:30:57.865Z,52.40
2022-12-09T15:36:07.009Z,40.97
2022-12-09T15:41:28.144Z,58.30
2022-12-09T15:51:35.722Z,43.05
2022-12-09T15:56:59.978Z,39.47
2022-12-09T16:02:02.546Z,51.40
2022-12-09T16:07:09.648Z,73.82
2022-12-09T16:12:26.490Z,75.07
2022-12-09T16:17:32.395Z,57.20
2022-12-09T16:22:34.642Z,51.00
2022-12-09T16:27:37.382Z,52.50
2022-12-09T16:33:00.946Z,51.55
2022-12-09T16:38:11.822Z,54.60
2022-12-09T16:43:16.997Z,54.45
2022-12-09T16:48:21.014Z,51.20
2022-12-09T16:53:30.631Z,45.05
2022-12-09T16:58:34.382Z,49.88
2022-12-09T17:03:41.532Z,66.13
2022-12-09T17:08:44.491Z,96.90
2022-12-09T17:13:46.900Z,64.38
2022-12-09T17:18:49.545Z,90.30
2022-12-09T17:23:51.846Z,112.70
2022-12-09T17:28:59.802Z,62.20
2022-12-09T17:34:04.503Z,53.67
2022-12-09T17:39:07.284Z,52.30
2022-12-09T17:44:09.640Z,61.50
2022-12-09T17:49:11.812Z,63.78
2022-12-09T17:54:13.915Z,102.43
2022-12-09T17:59:17.254Z,72.75
2022-12-09T18:04:19.245Z,57.95
2022-12-09T18:09:22.970Z,71.00
2022-12-09T18:14:26.237Z,67.88
2022-12-09T18:19:29.851Z,55.72
2022-12-09T18:24:31.926Z,57.78
2022-12-09T18:29:34.090Z,57.05
2022-12-09T18:34:36.582Z,66.22
2022-12-09T18:39:38.603Z,55.75
2022-12-09T18:44:40.959Z,67.63
2022-12-09T18:49:42.985Z,83.35
2022-12-09T18:54:47.605Z,89.25
2022-12-09T18:59:50.381Z,92.72
2022-12-09T19:04:52.627Z,95.50
2022-12-09T19:09:54.833Z,80.13
2022-12-09T19:14:56.858Z,96.13
2022-12-09T19:19:59.021Z,89.80
2022-12-09T19:25:01.119Z,88.07
2022-12-09T19:30:04.865Z,108.60
2022-12-09T19:35:07.349Z,75.63
2022-12-09T19:40:10.291Z,70.30
2022-12-09T19:45:14.454Z,93.20
2022-12-09T19:50:17.223Z,69.15
2022-12-09T19:55:19.344Z,90.30
2022-12-09T20:00:21.477Z,83.15
2022-12-09T20:05:23.503Z,106.63
2022-12-09T20:10:26.609Z,127.90
2022-12-09T20:15:28.619Z,102.82
2022-12-09T20:20:30.698Z,87.10
2022-12-09T20:25:36.283Z,74.97
2022-12-09T20:30:38.423Z,65.32
2022-12-09T20:35:40.599Z,72.72
2022-12-09T20:40:42.645Z,61.90
2022-12-09T20:45:44.764Z,91.35
2022-12-09T20:50:46.920Z,72.72
2022-12-09T20:55:59.499Z,69.30
2022-12-09T21:01:09.593Z,66.45
2022-12-09T21:06:15.169Z,60.08
2022-12-09T21:11:20.674Z,64.32
2022-12-09T21:16:25.461Z,90.32
2022-12-09T21:21:31.185Z,107.25
2022-12-09T21:26:33.387Z,79.60
2022-12-09T21:31:37.036Z,78.55
2022-12-09T21:36:42.632Z,82.80
2022-12-09T21:41:45.132Z,68.72
2022-12-09T21:46:47.369Z,71.22
2022-12-09T21:51:49.365Z,72.20
2022-12-09T21:56:52.301Z,91.78
2022-12-09T22:01:55.998Z,79.20
2022-12-09T22:06:58.248Z,72.43
2022-12-09T22:12:00.430Z,73.93
2022-12-09T22:17:03.759Z,73.88
2022-12-09T22:22:08.990Z,75.63
2022-12-09T22:27:11.649Z,80.75
2022-12-09T22:32:13.730Z,75.75
2022-12-09T22:37:42.304Z,71.28
2022-12-09T22:42:40.522Z,67.65
2022-12-09T22:47:42.552Z,66.05
2022-12-09T22:52:44.641Z,77.85
2022-12-09T22:57:46.688Z,73.47
2022-12-09T23:02:48.958Z,66.22
2022-12-09T23:07:51.174Z,67.68
2022-12-09T23:12:53.370Z,63.47
2022-12-09T23:17:55.735Z,64.00
2022-12-09T23:22:57.862Z,73.95
2022-12-09T23:28:00.018Z,66.53
2022-12-09T23:33:02.196Z,68.72
2022-12-09T23:38:04.478Z,62.95
2022-12-09T23:43:06.470Z,72.10
2022-12-09T23:48:08.498Z,73.03
2022-12-09T23:53:10.496Z,66.63
2022-12-09T23:58:12.522Z,67.80
